createdAt,value
2018-09-13T00:00:38.300Z,4.30
2018-09-13T00:03:06.931Z,3.93
2018-09-13T00:05:35.641Z,3.63
2018-09-13T00:08:04.366Z,3.90
2018-09-13T00:10:33.079Z,3.50
2018-09-13T00:13:01.694Z,4.20
2018-09-13T00:15:30.330Z,4.07
2018-09-13T00:17:58.982Z,3.50
2018-09-13T00:20:27.682Z,3.90
2018-09-13T00:22:56.322Z,4.33
2018-09-13T00:25:24.996Z,3.77
2018-09-13T00:27:53.644Z,3.87
2018-09-13T00:30:22.284Z,3.97
2018-09-13T00:32:50.909Z,3.97
2018-09-13T00:35:19.656Z,4.40
2018-09-13T00:37:48.340Z,4.30
2018-09-13T00:40:17.001Z,4.40
2018-09-13T00:42:45.777Z,4.17
2018-09-13T00:45:14.378Z,4.23
2018-09-13T00:47:44.528Z,3.87
2018-09-13T00:50:14.437Z,4.00
2018-09-13T00:52:43.040Z,3.97
2018-09-13T00:55:11.702Z,4.77
2018-09-13T00:57:40.333Z,4.27
2018-09-13T01:00:09.132Z,4.67
2018-09-13T01:02:38.780Z,4.33
2018-09-13T01:05:07.423Z,4.57
2018-09-13T01:07:36.106Z,4.20
2018-09-13T01:10:04.966Z,4.83
2018-09-13T01:12:33.694Z,4.50
2018-09-13T01:15:02.529Z,4.53
2018-09-13T01:17:31.147Z,4.20
2018-09-13T01:20:00.016Z,4.60
2018-09-13T01:22:28.685Z,4.57
2018-09-13T01:24:57.612Z,4.27
2018-09-13T01:27:27.944Z,4.47
2018-09-13T01:29:57.414Z,4.60
2018-09-13T01:32:26.085Z,3.93
2018-09-13T01:34:54.842Z,4.30
2018-09-13T01:37:23.466Z,4.20
2018-09-13T01:39:52.623Z,4.17
2018-09-13T01:42:21.262Z,4.57
2018-09-13T01:44:50.088Z,4.50
2018-09-13T01:47:18.747Z,4.77
2018-09-13T01:49:47.347Z,5.60
2018-09-13T01:52:16.194Z,5.23
2018-09-13T01:54:45.080Z,5.10
2018-09-13T01:57:14.067Z,5.47
2018-09-13T01:59:42.875Z,5.40
2018-09-13T02:02:11.538Z,5.30
2018-09-13T02:04:40.208Z,5.10
2018-09-13T02:07:08.892Z,5.73
2018-09-13T02:09:37.482Z,4.97
2018-09-13T02:12:06.553Z,5.03
2018-09-13T02:14:35.252Z,4.90
2018-09-13T02:17:04.097Z,5.00
2018-09-13T02:19:32.729Z,4.90
2018-09-13T02:22:01.361Z,4.87
2018-09-13T02:24:30.362Z,5.13
2018-09-13T02:26:59.307Z,4.70
2018-09-13T02:29:28.145Z,5.27
2018-09-13T02:31:56.753Z,4.80
2018-09-13T02:34:25.479Z,5.63
2018-09-13T02:36:54.106Z,4.83
2018-09-13T02:39:22.793Z,4.97
2018-09-13T02:41:51.641Z,5.03
2018-09-13T02:44:20.909Z,4.93
2018-09-13T02:46:50.051Z,5.53
2018-09-13T02:49:18.811Z,5.33
2018-09-13T02:51:47.595Z,5.37
2018-09-13T02:54:16.292Z,5.17
2018-09-13T02:56:44.891Z,5.23
2018-09-13T02:59:13.611Z,5.43
2018-09-13T03:01:42.205Z,5.83
2018-09-13T03:04:10.785Z,5.73
2018-09-13T03:06:39.533Z,6.20
2018-09-13T03:09:11.736Z,5.77
2018-09-13T03:11:40.849Z,5.77
2018-09-13T03:14:09.988Z,6.17
2018-09-13T03:16:39.124Z,6.00
2018-09-13T03:19:07.980Z,5.90
2018-09-13T03:21:38.765Z,5.50
2018-09-13T03:24:07.406Z,5.63
2018-09-13T03:26:36.286Z,5.97
2018-09-13T03:29:05.204Z,5.93
2018-09-13T03:31:33.825Z,5.77
2018-09-13T03:34:02.620Z,6.50
2018-09-13T03:36:31.230Z,5.50
2018-09-13T03:38:59.876Z,5.67
2018-09-13T03:41:28.568Z,5.73
2018-09-13T03:43:57.151Z,5.43
2018-09-13T03:46:25.780Z,5.53
2018-09-13T03:48:54.371Z,5.90
2018-09-13T03:51:23.011Z,5.57
2018-09-13T03:53:51.623Z,6.10
2018-09-13T03:56:20.284Z,6.10
2018-09-13T03:58:49.010Z,6.07
2018-09-13T04:01:17.673Z,6.27
2018-09-13T04:03:46.660Z,5.87
2018-09-13T04:06:15.343Z,6.37
2018-09-13T04:08:44.054Z,6.07
2018-09-13T04:11:12.683Z,5.80
2018-09-13T04:13:42.254Z,7.00
2018-09-13T04:16:10.839Z,5.70
2018-09-13T04:18:39.534Z,6.40
2018-09-13T04:21:08.107Z,7.40
2018-09-13T04:26:16.437Z,6.77
2018-09-13T04:28:44.956Z,6.80
2018-09-13T04:31:13.469Z,6.90
2018-09-13T04:33:41.992Z,7.00
2018-09-13T04:36:10.639Z,7.37
2018-09-13T04:38:39.138Z,6.77
2018-09-13T04:41:08.148Z,7.40
2018-09-13T04:43:36.718Z,7.53
2018-09-13T04:46:05.426Z,7.33
2018-09-13T04:48:34.521Z,7.80
2018-09-13T04:51:03.365Z,8.13
2018-09-13T04:53:32.814Z,6.90
2018-09-13T04:56:01.571Z,7.30
2018-09-13T04:58:30.257Z,7.87
2018-09-13T05:00:58.864Z,7.53
2018-09-13T05:03:27.510Z,7.73
2018-09-13T05:05:56.074Z,8.30
2018-09-13T05:08:24.673Z,8.43
2018-09-13T05:10:53.342Z,8.23
2018-09-13T05:13:21.990Z,8.50
2018-09-13T05:15:50.519Z,8.70
2018-09-13T05:18:19.091Z,8.53
2018-09-13T05:20:47.648Z,7.93
2018-09-13T05:23:16.153Z,9.17
2018-09-13T05:25:44.885Z,8.93
2018-09-13T05:28:13.703Z,9.60
2018-09-13T05:30:42.348Z,9.10
2018-09-13T05:33:10.924Z,8.27
2018-09-13T05:35:39.404Z,9.07
2018-09-13T05:38:07.885Z,8.97
2018-09-13T05:40:36.429Z,8.30
2018-09-13T05:43:04.995Z,8.70
2018-09-13T05:45:33.589Z,9.67
2018-09-13T05:48:02.393Z,10.63
2018-09-13T05:50:30.897Z,9.90
2018-09-13T05:52:59.417Z,10.63
2018-09-13T05:55:27.885Z,10.63
2018-09-13T05:57:56.435Z,10.10
2018-09-13T06:00:25.253Z,10.73
2018-09-13T06:02:53.787Z,9.93
2018-09-13T06:05:22.269Z,10.10
2018-09-13T06:07:50.997Z,10.03
2018-09-13T06:10:19.577Z,10.10
2018-09-13T06:12:48.490Z,11.40
2018-09-13T06:15:17.188Z,10.53
2018-09-13T06:17:45.894Z,9.57
2018-09-13T06:20:14.638Z,9.63
2018-09-13T06:22:43.276Z,9.47
2018-09-13T06:25:12.605Z,9.60
2018-09-13T06:27:41.102Z,9.43
2018-09-13T06:30:09.887Z,9.27
2018-09-13T06:32:38.395Z,9.07
2018-09-13T06:35:07.023Z,9.17
2018-09-13T06:37:35.595Z,8.70
2018-09-13T06:40:04.430Z,7.53
2018-09-13T06:42:33.391Z,7.73
2018-09-13T06:45:01.902Z,7.33
2018-09-13T06:47:30.426Z,6.57
2018-09-13T06:49:58.917Z,7.10
2018-09-13T06:52:27.508Z,7.17
2018-09-13T06:54:56.048Z,6.60
2018-09-13T06:57:24.789Z,6.23
2018-09-13T06:59:53.370Z,6.50
2018-09-13T07:02:21.948Z,6.37
2018-09-13T07:04:50.500Z,6.03
2018-09-13T07:07:19.350Z,5.73
2018-09-13T07:09:47.852Z,6.33
2018-09-13T07:12:16.525Z,5.90
2018-09-13T07:14:45.054Z,5.53
2018-09-13T07:17:13.611Z,4.70
2018-09-13T07:19:42.189Z,5.53
2018-09-13T07:22:10.883Z,5.27
2018-09-13T07:24:39.389Z,5.60
2018-09-13T07:27:07.927Z,4.43
2018-09-13T07:29:36.670Z,4.97
2018-09-13T07:32:05.356Z,4.53
2018-09-13T07:34:33.873Z,4.70
2018-09-13T07:37:02.438Z,4.17
2018-09-13T07:39:31.898Z,4.30
2018-09-13T07:42:00.426Z,4.30
2018-09-13T07:44:28.940Z,3.90
2018-09-13T07:46:57.552Z,4.30
2018-09-13T07:49:26.321Z,3.87
2018-09-13T07:51:54.888Z,4.37
2018-09-13T07:54:24.119Z,4.10
2018-09-13T07:56:52.642Z,3.97
2018-09-13T07:59:21.293Z,3.77
2018-09-13T08:01:49.860Z,4.00
2018-09-13T08:04:18.547Z,3.73
2018-09-13T08:06:47.104Z,4.00
2018-09-13T08:09:15.680Z,4.27
2018-09-13T08:11:44.302Z,3.57
2018-09-13T08:14:12.808Z,3.50
2018-09-13T08:16:41.336Z,3.90
2018-09-13T08:19:10.025Z,3.50
2018-09-13T08:21:38.692Z,3.30
2018-09-13T08:24:07.203Z,3.20
2018-09-13T08:26:35.799Z,2.97
2018-09-13T08:29:04.341Z,3.30
2018-09-13T08:31:32.865Z,3.57
2018-09-13T08:34:01.488Z,3.33
2018-09-13T08:36:30.035Z,3.53
2018-09-13T08:38:58.737Z,3.87
2018-09-13T08:41:27.261Z,3.70
2018-09-13T08:43:55.840Z,3.17
2018-09-13T08:46:24.400Z,2.77
2018-09-13T08:48:52.951Z,3.70
2018-09-13T08:51:21.975Z,3.23
2018-09-13T08:53:50.488Z,3.17
2018-09-13T08:56:19.024Z,2.73
2018-09-13T08:58:47.553Z,3.00
2018-09-13T09:01:17.829Z,2.83
2018-09-13T09:03:46.354Z,2.90
2018-09-13T09:06:15.068Z,2.93
2018-09-13T09:08:43.580Z,3.13
2018-09-13T09:11:12.201Z,2.80
2018-09-13T09:13:41.051Z,2.60
2018-09-13T09:16:09.588Z,2.60
2018-09-13T09:18:38.077Z,3.20
2018-09-13T09:21:06.724Z,3.00
2018-09-13T09:23:35.217Z,2.50
2018-09-13T09:26:03.721Z,2.40
2018-09-13T09:28:32.304Z,2.60
2018-09-13T09:31:00.921Z,2.70
2018-09-13T09:33:29.796Z,3.13
2018-09-13T09:35:58.638Z,2.50
2018-09-13T09:38:27.132Z,2.30
2018-09-13T09:40:55.649Z,2.30
2018-09-13T09:43:24.181Z,3.07
2018-09-13T09:45:52.703Z,2.53
2018-09-13T09:48:21.278Z,2.63
2018-09-13T09:50:49.892Z,2.57
2018-09-13T09:53:18.453Z,2.30
2018-09-13T09:55:48.292Z,2.30
2018-09-13T09:58:16.809Z,2.63
2018-09-13T10:01:50.397Z,2.70
2018-09-13T10:04:18.978Z,2.50
2018-09-13T10:06:47.586Z,2.90
2018-09-13T10:09:16.091Z,2.50
2018-09-13T10:11:45.037Z,2.13
2018-09-13T10:14:13.598Z,2.37
2018-09-13T10:16:47.341Z,2.50
2018-09-13T10:19:21.135Z,2.30
2018-09-13T10:21:54.961Z,2.43
2018-09-13T10:24:28.833Z,2.10
2018-09-13T10:27:02.697Z,2.13
2018-09-13T10:29:36.411Z,2.20
2018-09-13T10:33:12.003Z,2.10
2018-09-13T10:35:45.777Z,2.37
2018-09-13T10:38:19.809Z,2.03
2018-09-13T10:40:53.754Z,2.10
2018-09-13T10:43:27.626Z,2.00
2018-09-13T10:46:01.566Z,2.50
2018-09-13T10:48:31.648Z,2.67
2018-09-13T10:51:05.254Z,2.17
2018-09-13T10:53:38.930Z,2.60
2018-09-13T10:56:08.151Z,2.20
2018-09-13T10:58:36.853Z,2.00
2018-09-13T11:01:05.389Z,2.23
2018-09-13T11:03:34.000Z,2.40
2018-09-13T11:06:02.560Z,2.60
2018-09-13T11:08:31.167Z,2.23
2018-09-13T11:10:59.749Z,2.13
2018-09-13T11:13:34.017Z,2.03
2018-09-13T11:16:02.777Z,2.13
2018-09-13T11:18:31.640Z,3.67
2018-09-13T11:21:00.117Z,2.13
2018-09-13T11:23:28.787Z,2.13
2018-09-13T11:25:57.362Z,1.90
2018-09-13T11:28:25.921Z,2.17
2018-09-13T11:30:59.818Z,2.03
2018-09-13T11:33:28.280Z,2.23
2018-09-13T11:35:56.989Z,2.23
2018-09-13T11:38:25.565Z,1.93
2018-09-13T11:40:54.444Z,1.70
2018-09-13T11:43:22.694Z,1.90
2018-09-13T11:45:51.332Z,2.27
2018-09-13T11:48:19.832Z,2.20
2018-09-13T11:50:48.452Z,2.20
2018-09-13T11:53:16.930Z,2.20
2018-09-13T11:55:46.014Z,1.80
2018-09-13T11:58:15.910Z,2.40
2018-09-13T12:00:44.633Z,2.17
2018-09-13T12:03:14.642Z,2.20
2018-09-13T12:05:43.172Z,2.03
2018-09-13T12:08:11.995Z,2.20
2018-09-13T12:10:40.505Z,1.90
2018-09-13T12:13:09.043Z,2.40
2018-09-13T12:15:37.598Z,1.90
2018-09-13T12:18:06.766Z,2.27
2018-09-13T12:20:35.328Z,2.20
2018-09-13T12:23:03.965Z,1.93
2018-09-13T12:25:32.654Z,2.33
2018-09-13T12:28:08.124Z,2.00
2018-09-13T12:30:37.183Z,2.13
2018-09-13T12:33:05.713Z,2.10
2018-09-13T12:35:34.340Z,2.50
2018-09-13T12:38:02.876Z,1.90
2018-09-13T12:40:31.355Z,2.00
2018-09-13T12:42:59.872Z,2.20
2018-09-13T12:45:28.456Z,2.13
2018-09-13T12:47:57.153Z,2.30
2018-09-13T12:50:25.925Z,2.10
2018-09-13T12:52:54.481Z,1.67
2018-09-13T12:55:27.143Z,2.00
2018-09-13T12:57:55.682Z,2.00
2018-09-13T13:00:24.230Z,1.93
2018-09-13T13:02:52.695Z,2.00
2018-09-13T13:05:21.216Z,1.60
2018-09-13T13:07:49.797Z,1.90
2018-09-13T13:10:18.304Z,1.70
2018-09-13T13:12:47.228Z,1.87
2018-09-13T13:15:15.753Z,2.10
2018-09-13T13:17:44.334Z,1.80
2018-09-13T13:20:12.845Z,2.07
2018-09-13T13:22:41.343Z,1.93
2018-09-13T13:25:09.914Z,2.00
2018-09-13T13:27:38.545Z,1.80
2018-09-13T13:30:07.303Z,2.17
2018-09-13T13:32:35.833Z,1.80
2018-09-13T13:35:04.399Z,1.93
2018-09-13T13:37:32.921Z,1.80
2018-09-13T13:40:01.612Z,1.77
2018-09-13T13:42:30.207Z,2.47
2018-09-13T13:44:58.715Z,1.67
2018-09-13T13:47:27.255Z,2.07
2018-09-13T13:49:55.763Z,1.70
2018-09-13T13:52:24.223Z,1.73
2018-09-13T13:54:52.761Z,1.90
2018-09-13T13:57:21.599Z,2.00
2018-09-13T13:59:50.222Z,1.93
2018-09-13T14:02:18.784Z,2.10
2018-09-13T14:04:47.333Z,2.30
2018-09-13T14:07:15.999Z,2.03
2018-09-13T14:09:44.518Z,2.00
2018-09-13T14:12:13.138Z,2.20
2018-09-13T14:14:41.668Z,2.17
2018-09-13T14:17:10.190Z,1.60
2018-09-13T14:19:38.764Z,1.80
2018-09-13T14:22:07.306Z,1.87
2018-09-13T14:24:35.870Z,1.70
2018-09-13T14:27:04.396Z,1.83
2018-09-13T14:29:32.951Z,2.00
2018-09-13T14:32:01.465Z,2.07
2018-09-13T14:34:30.000Z,2.17
2018-09-13T14:36:58.506Z,2.00
2018-09-13T14:39:27.114Z,2.10
2018-09-13T14:41:55.634Z,2.17
2018-09-13T14:44:24.177Z,2.10
2018-09-13T14:46:52.839Z,2.07
2018-09-13T14:49:21.437Z,2.20
2018-09-13T14:51:49.971Z,1.93
2018-09-13T14:54:18.650Z,1.97
2018-09-13T14:56:47.189Z,1.87
2018-09-13T14:59:15.784Z,1.73
2018-09-13T15:01:44.545Z,2.33
2018-09-13T15:04:13.087Z,2.30
2018-09-13T15:06:41.653Z,2.00
2018-09-13T15:09:12.120Z,1.80
2018-09-13T15:11:40.790Z,2.00
2018-09-13T15:14:09.339Z,2.00
2018-09-13T15:16:37.885Z,1.77
2018-09-13T15:19:06.432Z,2.07
2018-09-13T15:21:35.120Z,1.90
2018-09-13T15:24:03.847Z,2.20
2018-09-13T15:26:32.411Z,2.30
2018-09-13T15:29:00.992Z,2.27
2018-09-13T15:31:29.701Z,2.20
2018-09-13T15:33:58.190Z,2.40
2018-09-13T15:36:26.816Z,1.93
2018-09-13T15:38:55.422Z,1.80
2018-09-13T15:41:24.025Z,1.80
2018-09-13T15:43:52.984Z,2.00
2018-09-13T15:46:21.917Z,1.90
2018-09-13T15:48:50.411Z,11.97
2018-09-13T15:51:19.181Z,2.20
2018-09-13T15:53:47.775Z,1.97
2018-09-13T15:56:16.348Z,2.23
2018-09-13T15:58:44.905Z,2.03
2018-09-13T16:01:13.434Z,1.80
2018-09-13T16:03:41.974Z,2.17
2018-09-13T16:06:10.542Z,1.90
2018-09-13T16:08:39.115Z,1.80
2018-09-13T16:11:07.866Z,2.00
2018-09-13T16:13:36.545Z,2.00
2018-09-13T16:16:05.101Z,2.00
2018-09-13T16:18:33.875Z,1.80
2018-09-13T16:21:02.942Z,2.20
2018-09-13T16:23:31.489Z,28.50
2018-09-13T16:26:00.080Z,2.50
2018-09-13T16:28:28.537Z,2.10
2018-09-13T16:30:57.125Z,1.70
2018-09-13T16:33:25.630Z,5.37
2018-09-13T16:35:55.207Z,6.97
2018-09-13T16:38:31.869Z,2.07
2018-09-13T16:41:06.256Z,2.03
2018-09-13T16:43:40.129Z,1.60
2018-09-13T16:46:09.935Z,1.70
2018-09-13T16:48:43.225Z,1.70
2018-09-13T16:51:12.422Z,5.40
2018-09-13T16:53:40.995Z,1.83
2018-09-13T16:56:09.566Z,1.90
2018-09-13T16:58:38.097Z,2.10
2018-09-13T17:01:06.731Z,2.17
2018-09-13T17:03:35.239Z,2.20
2018-09-13T17:06:03.764Z,3.53
2018-09-13T17:08:32.264Z,2.40
2018-09-13T17:11:00.765Z,2.23
2018-09-13T17:13:29.323Z,8.13
2018-09-13T17:15:57.879Z,2.13
2018-09-13T17:18:26.481Z,2.07
2018-09-13T17:20:55.032Z,1.90
2018-09-13T17:23:23.614Z,26.00
2018-09-13T17:25:52.133Z,9.20
2018-09-13T17:28:20.812Z,8.47
2018-09-13T17:30:49.512Z,2.37
2018-09-13T17:33:18.230Z,2.13
2018-09-13T17:35:46.787Z,2.30
2018-09-13T17:38:15.395Z,2.87
2018-09-13T17:40:43.910Z,1.90
2018-09-13T17:43:12.440Z,1.80
2018-09-13T17:45:40.959Z,2.17
2018-09-13T17:48:09.555Z,1.70
2018-09-13T17:50:38.042Z,2.00
2018-09-13T17:53:06.633Z,2.00
2018-09-13T17:55:35.650Z,2.10
2018-09-13T17:58:04.805Z,2.63
2018-09-13T18:00:33.322Z,2.00
2018-09-13T18:03:01.922Z,2.17
2018-09-13T18:05:30.577Z,2.10
2018-09-13T18:07:59.300Z,2.27
2018-09-13T18:10:28.453Z,2.20
2018-09-13T18:12:57.186Z,1.77
2018-09-13T18:15:25.699Z,2.70
2018-09-13T18:17:54.208Z,2.57
2018-09-13T18:20:22.743Z,3.00
2018-09-13T18:22:51.701Z,2.13
2018-09-13T18:25:20.184Z,2.00
2018-09-13T18:27:48.720Z,2.00
2018-09-13T18:30:17.347Z,2.23
2018-09-13T18:32:46.082Z,2.10
2018-09-13T18:35:14.638Z,1.93
2018-09-13T18:37:43.325Z,2.10
2018-09-13T18:40:11.853Z,2.50
2018-09-13T18:42:40.442Z,2.60
2018-09-13T18:45:09.030Z,2.67
2018-09-13T18:47:37.555Z,3.03
2018-09-13T18:50:06.152Z,2.40
2018-09-13T18:52:35.492Z,2.43
2018-09-13T18:55:04.487Z,2.57
2018-09-13T18:57:33.156Z,3.07
2018-09-13T19:00:01.759Z,3.07
2018-09-13T19:02:30.405Z,2.90
2018-09-13T19:05:00.107Z,2.63
2018-09-13T19:07:28.752Z,2.80
2018-09-13T19:09:57.281Z,3.20
2018-09-13T19:12:27.081Z,3.30
2018-09-13T19:14:55.817Z,3.30
2018-09-13T19:17:24.580Z,3.13
2018-09-13T19:19:53.128Z,3.30
2018-09-13T19:22:21.885Z,3.50
2018-09-13T19:24:50.697Z,3.30
2018-09-13T19:27:19.246Z,3.40
2018-09-13T19:29:47.902Z,3.67
2018-09-13T19:32:16.841Z,3.60
2018-09-13T19:34:45.565Z,3.70
2018-09-13T19:37:14.361Z,4.20
2018-09-13T19:39:43.526Z,3.77
2018-09-13T19:42:13.310Z,4.33
2018-09-13T19:44:41.846Z,3.93
2018-09-13T19:47:10.834Z,4.07
2018-09-13T19:49:39.506Z,3.53
2018-09-13T19:52:08.181Z,4.13
2018-09-13T19:54:37.182Z,4.33
2018-09-13T19:57:06.652Z,4.33
2018-09-13T19:59:35.317Z,4.63
2018-09-13T20:02:03.882Z,4.20
2018-09-13T20:04:32.485Z,3.93
2018-09-13T20:07:01.001Z,4.60
2018-09-13T20:09:29.789Z,4.43
2018-09-13T20:11:58.500Z,4.50
2018-09-13T20:14:27.044Z,4.70
2018-09-13T20:16:55.681Z,4.47
2018-09-13T20:19:24.182Z,4.83
2018-09-13T20:21:52.652Z,4.63
2018-09-13T20:24:21.990Z,4.33
2018-09-13T20:26:50.500Z,5.10
2018-09-13T20:29:19.978Z,4.50
2018-09-13T20:31:48.994Z,5.03
2018-09-13T20:34:17.477Z,4.90
2018-09-13T20:36:46.002Z,5.37
2018-09-13T20:39:14.553Z,5.17
2018-09-13T20:41:43.104Z,5.00
2018-09-13T20:44:11.611Z,5.07
2018-09-13T20:46:40.108Z,5.13
2018-09-13T20:49:08.997Z,4.87
2018-09-13T20:51:37.500Z,5.30
2018-09-13T20:54:06.369Z,5.43
2018-09-13T20:56:34.897Z,5.20
2018-09-13T20:59:03.465Z,5.27
2018-09-13T21:01:32.132Z,5.90
2018-09-13T21:04:01.633Z,5.50
2018-09-13T21:06:30.127Z,5.47
2018-09-13T21:08:58.613Z,5.90
2018-09-13T21:11:27.147Z,5.50
2018-09-13T21:13:58.216Z,6.00
2018-09-13T21:16:27.153Z,6.40
2018-09-13T21:18:55.660Z,6.43
2018-09-13T21:21:24.163Z,6.13
2018-09-13T21:23:52.775Z,6.40
2018-09-13T21:26:21.480Z,6.07
2018-09-13T21:28:50.079Z,6.00
2018-09-13T21:31:18.780Z,6.17
2018-09-13T21:33:47.735Z,7.27
2018-09-13T21:36:16.238Z,6.80
2018-09-13T21:38:44.732Z,6.90
2018-09-13T21:41:13.389Z,6.63
2018-09-13T21:43:41.956Z,7.23
2018-09-13T21:46:10.463Z,6.70
2018-09-13T21:48:39.004Z,7.00
2018-09-13T21:51:10.811Z,6.50
2018-09-13T21:53:39.601Z,6.23
2018-09-13T21:56:08.262Z,6.73
2018-09-13T21:58:36.767Z,6.83
2018-09-13T22:01:05.592Z,5.80
2018-09-13T22:03:34.345Z,6.10
2018-09-13T22:06:02.865Z,7.07
2018-09-13T22:08:31.386Z,7.17
2018-09-13T22:11:00.032Z,6.70
2018-09-13T22:13:33.447Z,7.10
2018-09-13T22:16:03.044Z,7.47
2018-09-13T22:18:32.074Z,7.97
2018-09-13T22:21:00.588Z,7.70
2018-09-13T22:23:29.167Z,8.50
2018-09-13T22:25:57.868Z,7.57
2018-09-13T22:28:26.426Z,7.67
2018-09-13T22:30:54.997Z,6.70
2018-09-13T22:33:24.096Z,8.13
2018-09-13T22:35:52.600Z,7.23
2018-09-13T22:38:22.469Z,7.43
2018-09-13T22:40:51.009Z,7.10
2018-09-13T22:43:19.851Z,7.20
2018-09-13T22:45:51.719Z,8.17
2018-09-13T22:48:20.216Z,7.10
2018-09-13T22:50:48.712Z,6.97
2018-09-13T22:53:20.736Z,7.40
2018-09-13T22:55:49.242Z,7.33
2018-09-13T22:58:17.734Z,8.00
2018-09-13T23:00:46.369Z,7.87
2018-09-13T23:03:15.159Z,7.97
2018-09-13T23:05:43.674Z,7.40
2018-09-13T23:08:12.225Z,7.30
2018-09-13T23:10:40.874Z,7.37
2018-09-13T23:13:09.449Z,7.20
2018-09-13T23:15:38.309Z,7.43
2018-09-13T23:18:06.802Z,7.73
2018-09-13T23:20:36.502Z,7.80
2018-09-13T23:23:05.058Z,7.93
2018-09-13T23:25:33.521Z,7.60
2018-09-13T23:28:02.037Z,6.50
2018-09-13T23:30:30.759Z,7.03
2018-09-13T23:32:59.261Z,7.67
2018-09-13T23:35:27.765Z,7.70
2018-09-13T23:37:56.246Z,7.17
2018-09-13T23:40:25.253Z,6.37
2018-09-13T23:42:53.689Z,7.27
2018-09-13T23:45:22.180Z,7.33
2018-09-13T23:47:50.732Z,7.00
2018-09-13T23:50:19.241Z,7.30
2018-09-13T23:52:48.011Z,7.37
2018-09-13T23:55:16.714Z,7.23
2018-09-13T23:57:45.363Z,7.13
